Time;durP1;ratioP1;P1;durP2;ratioP2;P2;SDS_P1;SDS_P2;PMS_P1;PMS_P2;Temp;Humidity;BMP_temperature;BMP_pressure;BME280_temperature;BME280_humidity;BME280_pressure;Samples;Min_cycle;Max_cycle;Signal;HPM_P1;HPM_P2
2020/12/07 00:00:31;;;;;;;30.08;18.75;;;5.40;92.40;;;;;;4989837;28;20038;-86
2020/12/07 00:03:07;;;;;;;31.48;21.27;;;5.40;92.40;;;;;;5016755;28;20105;-86
2020/12/07 00:05:36;;;;;;;29.85;19.70;;;5.50;92.40;;;;;;5006864;28;20068;-86
2020/12/07 00:08:10;;;;;;;30.55;20.33;;;5.50;92.40;;;;;;5013893;28;20042;-86
2020/12/07 00:10:41;;;;;;;27.10;18.63;;;5.50;92.40;;;;;;5012247;28;20058;-86
2020/12/07 00:13:07;;;;;;;32.05;20.60;;;5.50;92.40;;;;;;5026818;28;20083;-87
2020/12/07 00:15:35;;;;;;;29.25;19.63;;;5.50;92.40;;;;;;5028038;28;20451;-86
2020/12/07 00:18:09;;;;;;;28.23;18.40;;;5.50;92.40;;;;;;5028682;28;20053;-86
2020/12/07 00:20:53;;;;;;;30.15;19.67;;;5.50;92.40;;;;;;5014394;28;20068;-86
2020/12/07 00:23:18;;;;;;;29.13;20.05;;;5.50;92.40;;;;;;5025841;28;20084;-86
2020/12/07 00:26:18;;;;;;;;;;;;;;;;;;;;;
2020/12/07 00:29:04;;;;;;;;;;;;;;;;;;;;;
2020/12/07 00:31:45;;;;;;;;;;;;;;;;;;;;;
2020/12/07 00:34:20;;;;;;;33.80;20.30;;;5.50;92.40;;;;;;5034510;28;20025;-86
2020/12/07 00:36:48;;;;;;;30.10;20.13;;;5.50;92.40;;;;;;5018767;28;20029;-86
2020/12/07 00:39:16;;;;;;;31.13;20.73;;;5.50;92.40;;;;;;5049121;28;20033;-88
2020/12/07 00:41:52;;;;;;;34.08;21.70;;;5.50;92.40;;;;;;4998839;28;20026;-86
2020/12/07 00:44:23;;;;;;;33.75;20.08;;;5.50;92.40;;;;;;5016948;28;20053;-86
2020/12/07 00:46:49;;;;;;;32.40;21.58;;;5.50;92.40;;;;;;5024476;28;20033;-87
2020/12/07 00:49:32;;;;;;;31.40;21.15;;;5.50;92.40;;;;;;5026903;28;20619;-86
2020/12/07 00:51:58;;;;;;;32.78;21.05;;;5.50;92.40;;;;;;5018869;28;20026;-86
2020/12/07 00:54:32;;;;;;;32.92;21.58;;;5.50;92.30;;;;;;5026173;28;20033;-86
2020/12/07 00:57:05;;;;;;;31.23;20.13;;;5.50;92.40;;;;;;5032820;28;20108;-86
2020/12/07 00:59:34;;;;;;;33.80;22.00;;;5.50;92.40;;;;;;5016320;28;20030;-86
2020/12/07 01:02:02;;;;;;;30.52;21.35;;;5.50;92.40;;;;;;5021284;28;20111;-86
2020/12/07 01:04:27;;;;;;;30.27;20.30;;;5.50;92.40;;;;;;5020931;28;20021;-86
2020/12/07 01:06:53;;;;;;;29.70;20.38;;;5.50;92.40;;;;;;5026548;28;20099;-89
2020/12/07 01:09:29;;;;;;;32.45;21.65;;;5.50;92.40;;;;;;5016959;28;20133;-88
2020/12/07 01:12:02;;;;;;;30.17;20.35;;;5.50;92.40;;;;;;5022967;28;20032;-87
2020/12/07 01:14:53;;;;;;;30.95;20.90;;;5.50;92.40;;;;;;5014426;28;20041;-87
2020/12/07 01:17:28;;;;;;;28.70;19.05;;;5.60;92.40;;;;;;5028256;28;20025;-85
2020/12/07 01:19:54;;;;;;;30.52;19.83;;;5.50;92.40;;;;;;5025302;28;20112;-92
2020/12/07 01:22:27;;;;;;;28.30;19.45;;;5.50;92.40;;;;;;5014702;28;20116;-88
2020/12/07 01:25:09;;;;;;;32.63;20.17;;;5.50;92.40;;;;;;5016185;28;20041;-86
2020/12/07 01:27:51;;;;;;;30.50;20.35;;;5.50;92.40;;;;;;5025874;28;20025;-86
2020/12/07 01:30:38;;;;;;;30.55;20.58;;;5.50;92.40;;;;;;5030847;28;20128;-86
2020/12/07 01:33:03;;;;;;;33.40;20.60;;;5.60;92.40;;;;;;5013678;28;20039;-87
2020/12/07 01:35:34;;;;;;;31.25;20.88;;;5.50;92.40;;;;;;5033924;28;20538;-88
2020/12/07 01:38:02;;;;;;;33.05;21.42;;;5.50;92.40;;;;;;5029449;28;20124;-87
2020/12/07 01:40:30;;;;;;;32.45;21.45;;;5.50;92.40;;;;;;5031802;28;20474;-87
2020/12/07 01:42:56;;;;;;;31.42;21.73;;;5.50;92.40;;;;;;5031884;28;20024;-88
2020/12/07 01:45:35;;;;;;;;;;;;;;;;;;;;;
2020/12/07 01:48:04;;;;;;;28.20;20.45;;;5.50;92.40;;;;;;5031428;28;20374;-86
2020/12/07 01:50:39;;;;;;;30.67;21.55;;;5.50;92.40;;;;;;5026145;28;20052;-86
2020/12/07 01:53:15;;;;;;;31.15;22.33;;;5.40;92.40;;;;;;5029683;28;20017;-88
2020/12/07 01:55:44;;;;;;;27.95;20.13;;;5.40;92.40;;;;;;5028815;28;20095;-86
2020/12/07 01:58:18;;;;;;;29.45;21.30;;;5.40;92.40;;;;;;5018868;28;20042;-87
2020/12/07 02:01:00;;;;;;;30.13;21.33;;;5.40;92.40;;;;;;5020629;28;20049;-86
2020/12/07 02:03:26;;;;;;;28.70;20.20;;;5.40;92.40;;;;;;5028142;28;20022;-86
2020/12/07 02:06:12;;;;;;;30.40;20.42;;;5.40;92.40;;;;;;5008910;28;20041;-87
2020/12/07 02:08:39;;;;;;;30.45;20.80;;;5.40;92.30;;;;;;5013244;28;20543;-87
2020/12/07 02:11:05;;;;;;;33.03;21.90;;;5.30;92.30;;;;;;5054822;28;20045;-87
2020/12/07 02:13:36;;;;;;;30.00;20.20;;;5.30;92.30;;;;;;5030607;28;20060;-87
2020/12/07 02:16:05;;;;;;;31.15;20.95;;;5.30;92.40;;;;;;5033007;28;20029;-87
2020/12/07 02:18:50;;;;;;;31.75;20.83;;;5.30;92.40;;;;;;4999032;28;20049;-87
2020/12/07 02:21:16;;;;;;;33.72;22.05;;;5.30;92.40;;;;;;5018846;28;20467;-88
2020/12/07 02:23:44;;;;;;;27.67;19.17;;;5.30;92.40;;;;;;5047454;28;20032;-87
2020/12/07 02:26:22;;;;;;;30.33;20.75;;;5.30;92.40;;;;;;5012378;28;20509;-86
2020/12/07 02:29:01;;;;;;;30.73;21.27;;;5.30;92.40;;;;;;5032413;28;20493;-87
2020/12/07 02:31:29;;;;;;;30.83;20.45;;;5.30;92.40;;;;;;4995676;28;20033;-87
2020/12/07 02:33:57;;;;;;;27.05;19.33;;;5.30;92.40;;;;;;5025563;28;20030;-85
2020/12/07 02:36:30;;;;;;;32.53;21.88;;;5.30;92.40;;;;;;5015512;28;20128;-86
2020/12/07 02:39:07;;;;;;;31.40;20.88;;;5.30;92.40;;;;;;5013905;28;20100;-86
2020/12/07 02:41:43;;;;;;;;;;;;;;;;;;;;;
2020/12/07 02:44:19;;;;;;;;;;;;;;;;;;;;;
2020/12/07 02:46:52;;;;;;;30.92;21.08;;;5.30;92.40;;;;;;5019021;28;20485;-87
2020/12/07 02:49:26;;;;;;;33.53;21.50;;;5.30;92.40;;;;;;5017672;28;20479;-88
2020/12/07 02:52:01;;;;;;;33.78;22.00;;;5.30;92.40;;;;;;5022243;28;20030;-87
2020/12/07 02:54:32;;;;;;;30.90;21.67;;;5.30;92.40;;;;;;5026514;28;20329;-86
2020/12/07 02:57:02;;;;;;;33.17;22.40;;;5.30;92.40;;;;;;5013211;28;20057;-86
2020/12/07 02:59:28;;;;;;;32.78;21.67;;;5.30;92.50;;;;;;5023262;28;20025;-86
2020/12/07 03:01:56;;;;;;;34.03;21.00;;;5.30;92.50;;;;;;5024183;28;20030;-86
2020/12/07 03:04:28;;;;;;;32.53;21.13;;;5.30;92.50;;;;;;5018109;28;20017;-86
2020/12/07 03:07:03;;;;;;;;;;;;;;;;;;;;;
2020/12/07 03:09:34;;;;;;;30.08;20.67;;;5.30;92.50;;;;;;5025525;28;20046;-88
2020/12/07 03:12:03;;;;;;;31.20;20.75;;;5.30;92.50;;;;;;5033098;28;20378;-86
2020/12/07 03:14:29;;;;;;;31.23;20.50;;;5.30;92.50;;;;;;5032097;28;20033;-87
2020/12/07 03:17:26;;;;;;;32.65;20.88;;;5.30;92.50;;;;;;5019094;28;20017;-86
2020/12/07 03:19:55;;;;;;;30.08;19.58;;;5.30;92.50;;;;;;5027886;28;20029;-86
2020/12/07 03:22:29;;;;;;;28.67;19.92;;;5.30;92.50;;;;;;5018845;28;20034;-85
2020/12/07 03:25:00;;;;;;;29.67;19.70;;;5.30;92.60;;;;;;5020613;28;20044;-86
2020/12/07 03:27:26;;;;;;;28.58;19.48;;;5.40;92.60;;;;;;5044759;28;20065;-86
2020/12/07 03:30:04;;;;;;;;;;;;;;;;;;;;;
2020/12/07 03:33:08;;;;;;;29.33;19.30;;;5.40;92.60;;;;;;5027599;28;20035;-86
2020/12/07 03:35:34;;;;;;;25.05;17.05;;;5.40;92.60;;;;;;5031002;28;20128;-87
2020/12/07 03:38:02;;;;;;;26.08;17.85;;;5.30;92.60;;;;;;5023199;28;20108;-86
2020/12/07 03:40:33;;;;;;;25.50;18.05;;;5.40;92.60;;;;;;5028816;28;20079;-87
2020/12/07 03:42:59;;;;;;;27.15;17.48;;;5.40;92.60;;;;;;5015148;28;20103;-86
2020/12/07 03:45:28;;;;;;;25.55;17.30;;;5.40;92.60;;;;;;5031223;28;20041;-87
2020/12/07 03:47:59;;;;;;;27.90;18.63;;;5.40;92.60;;;;;;5012084;28;20076;-88
2020/12/07 03:50:40;;;;;;;25.73;17.33;;;5.40;92.60;;;;;;5012029;28;20028;-87
2020/12/07 03:53:18;;;;;;;;;;;;;;;;;;;;;
2020/12/07 03:56:04;;;;;;;24.13;16.67;;;5.40;92.60;;;;;;5031034;28;20040;-86
2020/12/07 03:58:43;;;;;;;24.30;16.90;;;5.40;92.70;;;;;;5027269;28;20450;-87
2020/12/07 04:01:17;;;;;;;24.48;17.10;;;5.40;92.70;;;;;;5016146;28;20030;-87
2020/12/07 04:04:16;;;;;;;23.08;16.40;;;5.40;92.70;;;;;;5031845;28;20032;-86
2020/12/07 04:06:46;;;;;;;24.27;16.60;;;5.40;92.70;;;;;;4997967;28;20045;-87
2020/12/07 04:09:17;;;;;;;26.13;17.52;;;5.40;92.70;;;;;;5022755;28;20072;-86
2020/12/07 04:12:07;;;;;;;20.50;15.57;;;5.40;92.70;;;;;;5026738;28;20080;-87
2020/12/07 04:14:39;;;;;;;20.35;15.02;;;5.40;92.70;;;;;;5031108;28;20391;-86
2020/12/07 04:17:25;;;;;;;24.65;16.83;;;5.40;92.70;;;;;;5024352;28;20419;-86
2020/12/07 04:20:03;;;;;;;;;;;;;;;;;;;;;
2020/12/07 04:22:33;;;;;;;20.23;14.57;;;5.50;92.70;;;;;;5024208;28;20497;-86
2020/12/07 04:25:17;;;;;;;19.58;14.30;;;5.50;92.70;;;;;;5030748;28;20037;-86
2020/12/07 04:28:02;;;;;;;18.80;13.70;;;5.50;92.70;;;;;;5021965;28;20025;-87
2020/12/07 04:30:45;;;;;;;22.00;15.35;;;5.50;92.70;;;;;;5028250;28;20109;-87
2020/12/07 04:33:23;;;;;;;19.45;14.40;;;5.50;92.70;;;;;;5014369;28;20022;-86
2020/12/07 04:36:02;;;;;;;;;;;;;;;;;;;;;
2020/12/07 04:38:37;;;;;;;21.77;14.88;;;5.50;92.70;;;;;;5013767;28;20052;-89
2020/12/07 04:41:03;;;;;;;19.60;14.07;;;5.50;92.80;;;;;;5024300;28;20340;-86
2020/12/07 04:43:35;;;;;;;19.88;13.90;;;5.50;92.80;;;;;;5026959;28;20030;-86
2020/12/07 04:46:02;;;;;;;20.88;15.60;;;5.50;92.80;;;;;;5031120;28;20044;-88
2020/12/07 04:48:50;;;;;;;22.85;13.82;;;5.50;92.80;;;;;;5025637;28;20104;-87
2020/12/07 04:51:22;;;;;;;19.65;14.02;;;5.50;92.80;;;;;;5024171;28;20018;-87
2020/12/07 04:54:07;;;;;;;20.63;14.52;;;5.60;92.80;;;;;;5020667;28;20033;-87
2020/12/07 04:56:44;;;;;;;21.85;15.43;;;5.50;92.80;;;;;;5024145;28;20485;-86
2020/12/07 04:59:50;;;;;;;;;;;;;;;;;;;;;
2020/12/07 05:02:19;;;;;;;20.48;14.70;;;5.50;92.80;;;;;;5030979;28;20044;-86
2020/12/07 05:04:47;;;;;;;22.02;15.38;;;5.50;92.80;;;;;;5031371;28;20034;-86
2020/12/07 05:07:18;;;;;;;24.10;17.40;;;5.50;92.70;;;;;;5032147;28;20437;-87
2020/12/07 05:09:46;;;;;;;23.90;15.90;;;5.50;92.80;;;;;;5031391;28;20052;-86
2020/12/07 05:12:25;;;;;;;21.45;15.68;;;5.50;92.80;;;;;;5034378;28;20032;-86
2020/12/07 05:15:27;;;;;;;21.58;16.10;;;5.50;92.80;;;;;;5016026;28;20049;-87
2020/12/07 05:18:06;;;;;;;23.08;17.20;;;5.50;92.80;;;;;;5014020;28;20041;-86
2020/12/07 05:20:39;;;;;;;24.08;17.52;;;5.50;92.70;;;;;;5022815;28;20033;-87
2020/12/07 05:23:15;;;;;;;27.00;18.70;;;5.50;92.80;;;;;;5030612;28;20048;-87
2020/12/07 05:25:50;;;;;;;24.50;17.05;;;5.50;92.80;;;;;;5033271;28;20096;-86
2020/12/07 05:28:36;;;;;;;23.83;17.10;;;5.50;92.80;;;;;;5018511;28;20017;-89
2020/12/07 05:31:19;;;;;;;24.95;17.40;;;5.50;92.80;;;;;;5030948;28;20068;-88
2020/12/07 05:33:52;;;;;;;25.33;18.58;;;5.60;92.80;;;;;;5014786;28;20030;-86
2020/12/07 05:36:21;;;;;;;25.02;17.75;;;5.50;92.80;;;;;;4999148;28;20513;-86
2020/12/07 05:39:11;;;;;;;26.25;18.50;;;5.60;92.80;;;;;;5027935;28;20443;-87
2020/12/07 05:41:48;;;;;;;25.23;17.70;;;5.50;92.80;;;;;;5016737;28;20544;-86
2020/12/07 05:44:23;;;;;;;27.40;18.80;;;5.50;92.80;;;;;;5033279;28;20052;-86
2020/12/07 05:47:02;;;;;;;24.77;18.83;;;5.50;92.80;;;;;;5033761;28;20407;-88
2020/12/07 05:49:41;;;;;;;;;;;;;;;;;;;;;
2020/12/07 05:52:20;;;;;;;25.55;19.98;;;5.60;92.90;;;;;;5020471;28;20025;-86
2020/12/07 05:55:08;;;;;;;25.65;18.52;;;5.50;93.10;;;;;;5033594;28;20052;-87
2020/12/07 05:57:45;;;;;;;25.73;18.55;;;5.60;92.90;;;;;;5022857;28;20112;-86
2020/12/07 06:00:31;;;;;;;;;;;;;;;;;;;;;
2020/12/07 06:03:11;;;;;;;24.27;17.27;;;5.60;92.90;;;;;;5035924;28;20033;-87
2020/12/07 06:05:57;;;;;;;25.27;17.70;;;5.60;92.90;;;;;;5030230;28;20041;-87
2020/12/07 06:08:59;;;;;;;;;;;;;;;;;;;;;
2020/12/07 06:11:32;;;;;;;27.15;19.38;;;5.60;92.90;;;;;;5027110;28;20029;-87
2020/12/07 06:13:58;;;;;;;24.83;18.50;;;5.60;92.90;;;;;;5033581;28;20478;-87
2020/12/07 06:16:58;;;;;;;26.55;18.50;;;5.60;92.90;;;;;;5034008;28;20773;-88
2020/12/07 06:19:33;;;;;;;23.67;17.55;;;5.60;93.00;;;;;;5019547;28;20498;-88
2020/12/07 06:22:09;;;;;;;25.83;18.00;;;5.60;92.90;;;;;;5014073;28;20112;-87
2020/12/07 06:24:43;;;;;;;22.90;16.88;;;5.60;92.90;;;;;;5026085;28;20530;-87
2020/12/07 06:27:23;;;;;;;25.80;18.33;;;5.60;93.00;;;;;;5031931;28;20037;-88
2020/12/07 06:30:12;;;;;;;23.02;16.42;;;5.60;92.90;;;;;;5015507;28;20038;-88
2020/12/07 06:33:00;;;;;;;29.27;19.63;;;5.70;93.00;;;;;;5048091;28;20030;-87
2020/12/07 06:35:29;;;;;;;25.83;19.45;;;5.70;92.90;;;;;;5025269;28;20029;-85
2020/12/07 06:37:56;;;;;;;28.48;19.67;;;5.60;92.90;;;;;;5018620;28;20029;-88
2020/12/07 06:40:34;;;;;;;27.20;18.67;;;5.60;92.90;;;;;;5026513;28;20068;-89
2020/12/07 06:43:20;;;;;;;26.45;18.92;;;5.60;92.90;;;;;;5025514;28;20034;-86
2020/12/07 06:45:46;;;;;;;25.92;17.98;;;5.60;93.00;;;;;;5030975;28;20455;-86
2020/12/07 06:48:25;;;;;;;27.38;20.65;;;5.70;93.00;;;;;;5014473;28;20033;-87
2020/12/07 06:50:56;;;;;;;28.35;20.55;;;5.60;92.90;;;;;;5014628;28;20049;-86
2020/12/07 06:55:58;;;;;;;29.17;20.00;;;5.70;93.00;;;;;;5033386;28;20504;-86
2020/12/07 06:58:44;;;;;;;28.33;19.73;;;5.70;92.90;;;;;;5033268;28;20030;-86
2020/12/07 07:01:23;;;;;;;27.00;18.85;;;5.70;93.00;;;;;;5038402;28;20045;-86
2020/12/07 07:04:02;;;;;;;27.60;20.15;;;5.70;93.00;;;;;;5003231;28;20030;-86
2020/12/07 07:06:28;;;;;;;26.75;19.00;;;5.70;92.90;;;;;;5015797;28;20044;-86
2020/12/07 07:08:59;;;;;;;22.92;16.85;;;5.70;93.00;;;;;;5022126;28;20046;-86
2020/12/07 07:11:28;;;;;;;;;;;5.70;93.00;;;;;;5029232;28;20068;-88
2020/12/07 07:14:03;;;;;;;;;;;;;;;;;;;;;
2020/12/07 07:16:35;;;;;;;23.80;17.67;;;5.60;93.00;;;;;;5022879;28;20030;-86
2020/12/07 07:19:09;;;;;;;25.23;18.30;;;5.60;93.00;;;;;;5029428;28;20083;-86
2020/12/07 07:21:52;;;;;;;24.27;17.45;;;5.70;93.00;;;;;;5016197;28;20416;-86
2020/12/07 07:24:19;;;;;;;22.75;17.15;;;5.60;93.00;;;;;;5030054;28;20474;-86
2020/12/07 07:27:01;;;;;;;24.88;17.13;;;5.70;93.00;;;;;;5023477;28;20032;-86
2020/12/07 07:29:35;;;;;;;;;;;5.60;93.00;;;;;;5015066;28;20433;-87
2020/12/07 07:32:03;;;;;;;29.48;19.35;;;5.70;93.00;;;;;;5012356;28;19941;-86
2020/12/07 07:34:43;;;;;;;;;;;;;;;;;;;;;
2020/12/07 07:37:09;;;;;;;25.20;18.25;;;5.60;93.00;;;;;;5013509;28;20037;-87
2020/12/07 07:39:47;;;;;;;22.80;16.80;;;5.60;93.00;;;;;;5015747;28;20120;-89
2020/12/07 07:42:19;;;;;;;22.27;16.38;;;5.60;93.00;;;;;;5021248;28;20103;-87
2020/12/07 07:45:13;;;;;;;21.35;15.68;;;5.70;93.00;;;;;;5008641;28;20704;-90
2020/12/07 07:48:02;;;;;;;24.13;16.23;;;5.70;93.00;;;;;;5041848;28;20041;-87
2020/12/07 08:03:16;;;;;;;20.02;14.80;;;5.60;93.00;;;;;;5022744;28;20053;-87
2020/12/07 08:16:38;;;;;;;21.77;16.35;;;5.60;93.00;;;;;;5015694;28;20049;-87
2020/12/07 08:22:35;;;;;;;20.38;15.52;;;5.70;93.00;;;;;;5009996;28;20038;-87
2020/12/07 08:25:20;;;;;;;;;;;;;;;;;;;;;
2020/12/07 08:28:21;;;;;;;19.27;15.30;;;5.70;93.00;;;;;;5021424;28;20026;-90
2020/12/07 08:31:46;;;;;;;21.02;14.65;;;5.70;93.00;;;;;;5024142;28;20038;-88
2020/12/07 08:34:27;;;;;;;;;;;;;;;;;;;;;
2020/12/07 08:37:20;;;;;;;;;;;;;;;;;;;;;
2020/12/07 08:42:50;;;;;;;20.05;14.13;;;5.70;93.10;;;;;;5003094;28;20030;-88
2020/12/07 08:45:45;;;;;;;19.17;14.95;;;5.70;93.10;;;;;;5031356;28;20073;-89
2020/12/07 08:48:43;;;;;;;19.80;14.20;;;5.70;93.10;;;;;;5019605;28;20041;-88
2020/12/07 08:54:32;;;;;;;19.38;14.32;;;5.70;93.10;;;;;;5028567;28;20029;-87
2020/12/07 09:00:52;;;;;;;21.55;15.15;;;5.70;93.10;;;;;;5009195;28;20041;-88
2020/12/07 09:07:28;;;;;;;20.45;15.05;;;5.70;93.00;;;;;;5016457;28;20041;-88
2020/12/07 09:16:57;;;;;;;24.52;17.35;;;5.70;93.00;;;;;;4989938;28;20070;-88
2020/12/07 09:20:19;;;;;;;;;;;;;;;;;;;;;
2020/12/07 09:23:14;;;;;;;23.95;17.83;;;5.70;93.00;;;;;;4988116;28;20034;-88
2020/12/07 09:40:18;;;;;;;;;;;;;;;;;;;;;
2020/12/07 09:46:38;;;;;;;;;;;;;;;;;;;;;
2020/12/07 09:53:15;;;;;;;25.77;18.80;;;5.70;93.00;;;;;;4952615;28;20032;-89
2020/12/07 09:59:46;;;;;;;;;;;;;;;;;;;;;
2020/12/07 10:02:12;;;;;;;31.70;22.25;;;5.70;92.90;;;;;;4995764;28;20047;-85
2020/12/07 10:05:11;;;;;;;27.33;19.92;;;5.70;92.90;;;;;;4994298;28;20136;-90
2020/12/07 10:11:03;;;;;;;26.42;19.98;;;5.70;92.90;;;;;;4983741;28;20049;-91
2020/12/07 10:14:22;;;;;;;;;;;;;;;;;;;;;
2020/12/07 10:35:25;;;;;;;;;;;;;;;;;;;;;
2020/12/07 11:02:23;;;;;;;;;;;;;;;;;;;;;
2020/12/07 11:05:38;;;;;;;42.67;28.02;;;5.70;92.80;;;;;;4899587;29;20040;-88
2020/12/07 11:15:45;;;;;;;40.53;27.50;;;5.70;92.80;;;;;;4857994;28;20029;-89
2020/12/07 11:31:32;;;;;;;45.95;30.13;;;5.60;92.70;;;;;;5007033;28;20045;-88
2020/12/07 11:41:25;;;;;;;47.35;28.65;;;5.60;92.70;;;;;;4977022;28;20089;-88
2020/12/07 11:47:36;;;;;;;;;;;;;;;;;;;;;
2020/12/07 11:50:22;;;;;;;45.90;28.58;;;5.60;92.60;;;;;;4987685;28;20053;-87
2020/12/07 11:53:04;;;;;;;44.75;27.17;;;5.70;92.70;;;;;;5012040;28;20049;-87
2020/12/07 11:55:45;;;;;;;43.40;26.88;;;5.70;92.70;;;;;;5031215;28;20025;-89
2020/12/07 11:59:17;;;;;;;;;;;;;;;;;;;;;
2020/12/07 12:02:19;;;;;;;34.00;22.63;;;5.70;92.70;;;;;;5013164;28;20141;-89
2020/12/07 12:07:46;;;;;;;36.67;23.48;;;5.70;92.70;;;;;;5012032;28;20037;-90
2020/12/07 12:14:42;;;;;;;;;;;;;;;;;;;;;
2020/12/07 12:27:43;;;;;;;;;;;;;;;;;;;;;
2020/12/07 12:31:22;;;;;;;32.60;20.63;;;5.70;92.50;;;;;;4989185;28;20053;-88
2020/12/07 12:34:21;;;;;;;36.78;21.70;;;5.70;92.50;;;;;;4985041;28;20056;-88
2020/12/07 12:44:21;;;;;;;;;;;;;;;;;;;;;
2020/12/07 12:57:19;;;;;;;;;;;;;;;;;;;;;
2020/12/07 13:00:37;;;;;;;;;;;;;;;;;;;;;
2020/12/07 13:13:38;;;;;;;;;;;;;;;;;;;;;
2020/12/07 13:20:26;;;;;;;;;;;;;;;;;;;;;
2020/12/07 13:30:03;;;;;;;30.85;19.20;;;5.60;92.50;;;;;;4998252;28;20030;-88
2020/12/07 13:36:40;;;;;;;;;;;5.60;92.40;;;;;;4990869;28;20061;-88
2020/12/07 13:39:23;;;;;;;28.52;18.60;;;5.50;92.40;;;;;;5004373;28;20399;-88
2020/12/07 13:41:59;;;;;;;31.23;19.27;;;5.50;92.40;;;;;;4980222;28;20575;-88
2020/12/07 13:45:18;;;;;;;;;;;;;;;;;;;;;
2020/12/07 13:48:38;;;;;;;;;;;;;;;;;;;;;
2020/12/07 13:54:46;;;;;;;;;;;;;;;;;;;;;
2020/12/07 13:57:35;;;;;;;28.00;18.65;;;5.60;92.40;;;;;;5013049;28;20132;-89
2020/12/07 14:03:53;;;;;;;27.05;18.05;;;5.60;92.40;;;;;;5005613;28;20034;-89
2020/12/07 14:06:51;;;;;;;29.75;18.55;;;5.50;92.40;;;;;;4981664;28;20038;-88
2020/12/07 14:09:48;;;;;;;30.33;18.52;;;5.60;92.40;;;;;;4978990;28;20060;-88
2020/12/07 14:18:58;;;;;;;;;;;;;;;;;;;;;
2020/12/07 14:31:05;;;;;;;;;;;;;;;;;;;;;
2020/12/07 14:39:53;;;;;;;31.63;20.35;;;5.40;92.30;;;;;;5001525;28;20033;-88
2020/12/07 14:43:12;;;;;;;;;;;;;;;;;;;;;
2020/12/07 14:52:23;;;;;;;39.47;25.50;;;5.40;92.20;;;;;;5003883;28;20038;-88
2020/12/07 15:16:03;;;;;;;;;;;;;;;;;;;;;
2020/12/07 15:19:10;;;;;;;;;;;;;;;;;;;;;
2020/12/07 15:22:08;;;;;;;;;;;;;;;;;;;;;
2020/12/07 15:24:41;;;;;;;35.38;22.23;;;5.30;92.30;;;;;;4912126;29;20498;-90
2020/12/07 15:27:45;;;;;;;;;;;;;;;;;;;;;
2020/12/07 15:30:49;;;;;;;35.72;22.98;;;5.30;92.30;;;;;;4955139;28;20035;-88
2020/12/07 15:33:27;;;;;;;;;;;;;;;;;;;;;
2020/12/07 15:36:26;;;;;;;38.45;24.45;;;5.30;92.20;;;;;;4970184;28;20376;-86
2020/12/07 15:39:16;;;;;;;37.88;24.10;;;5.30;92.20;;;;;;4971828;28;20086;-87
2020/12/07 15:42:08;;;;;;;34.97;22.08;;;5.20;92.20;;;;;;4978174;28;20054;-86
2020/12/07 15:45:16;;;;;;;;;;;;;;;;;;;;;
2020/12/07 15:48:21;;;;;;;;;;;;;;;;;;;;;
2020/12/07 15:54:42;;;;;;;;;;;;;;;;;;;;;
2020/12/07 15:57:30;;;;;;;;;;;;;;;;;;;;;
2020/12/07 16:00:35;;;;;;;;;;;;;;;;;;;;;
2020/12/07 16:03:24;;;;;;;;;;;;;;;;;;;;;
2020/12/07 16:09:32;;;;;;;29.70;20.77;;;5.20;92.20;;;;;;4964708;28;20051;-89
2020/12/07 16:12:43;;;;;;;32.40;20.33;;;5.10;92.20;;;;;;5011221;28;20046;-88
2020/12/07 16:15:17;;;;;;;32.37;20.90;;;5.10;92.20;;;;;;4998380;28;20682;-88
2020/12/07 16:18:41;;;;;;;34.38;20.38;;;5.10;92.10;;;;;;4995807;28;20165;-88
2020/12/07 16:21:54;;;;;;;32.90;21.23;;;5.10;92.20;;;;;;5010637;28;20030;-87
2020/12/07 16:24:49;;;;;;;;;;;;;;;;;;;;;
2020/12/07 16:27:39;;;;;;;;;;;;;;;;;;;;;
2020/12/07 16:30:06;;;;;;;34.92;22.02;;;5.10;92.20;;;;;;5003403;28;20387;-88
2020/12/07 16:32:39;;;;;;;34.88;20.77;;;5.10;92.20;;;;;;5008058;28;20030;-86
2020/12/07 16:35:11;;;;;;;34.72;21.80;;;5.10;92.20;;;;;;4994803;28;20038;-91
2020/12/07 16:38:11;;;;;;;34.72;22.20;;;5.10;92.20;;;;;;5001058;28;20073;-86
2020/12/07 16:40:57;;;;;;;39.33;24.80;;;5.10;92.30;;;;;;5004493;28;20022;-86
2020/12/07 16:43:34;;;;;;;48.30;27.55;;;5.10;92.30;;;;;;5007947;28;20420;-89
2020/12/07 16:46:10;;;;;;;;;;;;;;;;;;;;;
2020/12/07 16:48:44;;;;;;;56.58;33.80;;;5.10;92.20;;;;;;5005346;28;20060;-90
2020/12/07 16:51:10;;;;;;;61.90;34.72;;;5.10;92.30;;;;;;5005919;28;20037;-87
2020/12/07 16:53:56;;;;;;;65.15;37.50;;;5.10;92.30;;;;;;5008700;28;20018;-86
2020/12/07 16:56:25;;;;;;;66.10;38.38;;;5.10;92.20;;;;;;5001628;28;20038;-87
2020/12/07 16:58:56;;;;;;;63.72;36.30;;;5.10;92.20;;;;;;4993183;28;20034;-86
2020/12/07 17:01:21;;;;;;;65.10;37.92;;;5.10;92.20;;;;;;5005495;28;20022;-85
2020/12/07 17:03:52;;;;;;;63.33;37.40;;;5.10;92.20;;;;;;4994497;28;20530;-86
2020/12/07 17:06:47;;;;;;;63.08;36.67;;;5.10;92.20;;;;;;5014872;28;20129;-85
2020/12/07 17:09:25;;;;;;;62.45;37.45;;;5.10;92.20;;;;;;5013768;28;20677;-86
2020/12/07 17:15:02;;;;;;;62.55;36.30;;;5.10;92.20;;;;;;5007707;28;20034;-87
2020/12/07 17:17:50;;;;;;;62.67;36.80;;;5.00;92.20;;;;;;4996808;28;20057;-88
2020/12/07 17:20:27;;;;;;;55.53;34.10;;;5.10;92.20;;;;;;5007229;28;21025;-86
2020/12/07 17:22:58;;;;;;;60.55;34.58;;;5.10;92.20;;;;;;5004245;28;20018;-88
2020/12/07 17:25:25;;;;;;;54.45;32.63;;;5.10;92.20;;;;;;4997007;28;20030;-87
2020/12/07 17:27:53;;;;;;;54.45;32.95;;;5.10;92.20;;;;;;5002934;28;20077;-86
2020/12/07 17:30:21;;;;;;;52.60;31.27;;;5.10;92.20;;;;;;5017479;28;20034;-87
2020/12/07 17:32:58;;;;;;;48.42;29.98;;;5.10;92.20;;;;;;5007242;28;20053;-86
2020/12/07 17:35:31;;;;;;;52.20;31.65;;;5.10;92.20;;;;;;5012270;28;20021;-86
2020/12/07 17:38:23;;;;;;;50.10;29.77;;;5.10;92.20;;;;;;5004763;28;20030;-87
2020/12/07 17:40:49;;;;;;;51.88;30.52;;;5.00;92.20;;;;;;5007295;28;20037;-87
2020/12/07 17:43:17;;;;;;;50.20;29.10;;;5.10;92.20;;;;;;5007272;28;20030;-85
2020/12/07 17:45:56;;;;;;;;;;;;;;;;;;;;;
2020/12/07 17:48:35;;;;;;;46.83;28.15;;;5.00;92.40;;;;;;4998498;28;20034;-90
2020/12/07 17:51:08;;;;;;;46.47;28.67;;;5.00;92.10;;;;;;5002254;28;20032;-87
2020/12/07 17:53:42;;;;;;;45.78;27.00;;;5.00;92.20;;;;;;5001675;28;20020;-88
2020/12/07 17:56:29;;;;;;;;;;;;;;;;;;;;;
2020/12/07 17:59:03;;;;;;;44.03;26.80;;;5.00;92.10;;;;;;5008120;28;20029;-86
2020/12/07 18:01:44;;;;;;;40.50;25.63;;;5.00;92.10;;;;;;5001762;28;20022;-85
2020/12/07 18:04:34;;;;;;;44.47;25.55;;;5.00;92.10;;;;;;4990292;28;20029;-87
2020/12/07 18:07:01;;;;;;;46.30;26.13;;;5.00;92.10;;;;;;5001488;28;20034;-85
2020/12/07 18:09:50;;;;;;;41.05;24.75;;;5.00;92.10;;;;;;5007447;28;20092;-87
2020/12/07 18:12:46;;;;;;;41.83;25.27;;;5.00;92.10;;;;;;5007222;28;20395;-85
2020/12/07 18:15:35;;;;;;;;;;;;;;;;;;;;;
2020/12/07 18:18:08;;;;;;;40.15;24.13;;;5.00;92.10;;;;;;5001818;28;20032;-86
2020/12/07 18:20:37;;;;;;;41.17;24.45;;;5.00;92.10;;;;;;5005599;28;20837;-85
2020/12/07 18:23:40;;;;;;;41.88;24.10;;;5.00;92.10;;;;;;5009363;28;20017;-86
2020/12/07 18:26:38;;;;;;;36.25;23.08;;;5.00;92.10;;;;;;5005777;28;20100;-87
2020/12/07 18:29:30;;;;;;;41.35;24.20;;;5.00;92.10;;;;;;5006709;28;20063;-86
2020/12/07 18:32:28;;;;;;;44.08;26.42;;;5.00;92.10;;;;;;5004255;28;20041;-86
2020/12/07 18:35:04;;;;;;;40.13;24.38;;;5.00;92.10;;;;;;4989847;28;20042;-91
2020/12/07 18:37:45;;;;;;;;;;;;;;;;;;;;;
2020/12/07 18:40:21;;;;;;;44.90;26.23;;;5.00;92.00;;;;;;5000924;28;20028;-87
2020/12/07 18:42:50;;;;;;;46.65;26.52;;;4.90;92.00;;;;;;5008017;28;20045;-85
2020/12/07 18:45:50;;;;;;;;;;;;;;;;;;;;;
2020/12/07 18:48:23;;;;;;;39.35;24.70;;;5.00;92.00;;;;;;5006029;28;20022;-91
2020/12/07 18:50:59;;;;;;;42.05;25.40;;;4.90;92.00;;;;;;4995150;28;20145;-88
2020/12/07 18:53:59;;;;;;;40.95;24.98;;;4.90;92.30;;;;;;5021647;28;20029;-88
2020/12/07 18:56:49;;;;;;;37.47;23.02;;;5.00;92.10;;;;;;5004238;28;20283;-88
2020/12/07 19:00:11;;;;;;;;;;;;;;;;;;;;;
2020/12/07 19:02:56;;;;;;;34.33;22.10;;;4.90;92.10;;;;;;5007456;28;20357;-89
2020/12/07 19:05:41;;;;;;;36.70;21.65;;;4.90;92.10;;;;;;5004381;28;20058;-91
2020/12/07 19:08:21;;;;;;;35.47;22.05;;;5.00;92.10;;;;;;5009107;28;20018;-88
2020/12/07 19:11:02;;;;;;;37.20;23.00;;;4.90;92.10;;;;;;5005926;28;20095;-87
2020/12/07 19:13:43;;;;;;;31.05;20.45;;;5.00;92.10;;;;;;4989202;28;20027;-87
2020/12/07 19:16:18;;;;;;;37.80;22.05;;;4.90;92.10;;;;;;5000793;28;20125;-87
2020/12/07 19:19:09;;;;;;;37.10;21.98;;;4.90;92.10;;;;;;5005518;28;20078;-86
2020/12/07 19:22:18;;;;;;;36.65;22.88;;;5.00;92.10;;;;;;4997828;28;20030;-87
2020/12/07 19:24:46;;;;;;;35.50;21.88;;;4.90;92.10;;;;;;5005324;28;20022;-87
2020/12/07 19:27:29;;;;;;;;;;;;;;;;;;;;;
2020/12/07 19:30:06;;;;;;;34.67;21.77;;;4.90;92.10;;;;;;5005985;28;20032;-91
2020/12/07 19:32:51;;;;;;;35.38;21.77;;;5.00;92.20;;;;;;4996912;28;20057;-86
2020/12/07 19:35:33;;;;;;;34.00;22.15;;;4.90;92.10;;;;;;5031364;28;20109;-87
2020/12/07 19:38:33;;;;;;;38.08;22.15;;;5.00;92.20;;;;;;5009183;28;20076;-88
2020/12/07 19:41:07;;;;;;;33.03;20.70;;;5.00;92.20;;;;;;4995924;28;20050;-87
2020/12/07 19:43:35;;;;;;;35.25;21.65;;;5.00;92.20;;;;;;4993094;28;20026;-87